createdAt,value
2023-02-17T00:01:26.498Z,100661.81
2023-02-17T00:02:59.370Z,100651.84
2023-02-17T00:04:32.726Z,100655.41
2023-02-17T00:06:09.007Z,100658.94
2023-02-17T00:07:40.879Z,100656.25
2023-02-17T00:09:12.561Z,100658.00
2023-02-17T00:10:44.522Z,100651.66
2023-02-17T00:12:16.300Z,100663.25
2023-02-17T00:13:48.130Z,100661.41
2023-02-17T00:15:19.914Z,100656.03
2023-02-17T00:16:51.730Z,100652.28
2023-02-17T00:18:23.898Z,100654.13
2023-02-17T00:19:55.927Z,100654.13
2023-02-17T00:21:30.497Z,100657.66
2023-02-17T00:23:02.216Z,100657.59
2023-02-17T00:24:37.475Z,100645.00
2023-02-17T00:26:09.548Z,100647.56
2023-02-17T00:27:41.281Z,100651.13
2023-02-17T00:29:14.308Z,100644.03
2023-02-17T00:30:46.025Z,100642.19
2023-02-17T00:32:17.726Z,100641.34
2023-02-17T00:33:49.797Z,100639.50
2023-02-17T00:35:21.526Z,100635.88
2023-02-17T00:36:53.236Z,100639.41
2023-02-17T00:38:24.970Z,100636.72
2023-02-17T00:39:56.774Z,100641.25
2023-02-17T00:41:29.123Z,100634.03
2023-02-17T00:43:02.399Z,100635.88
2023-02-17T00:44:34.131Z,100640.16
2023-02-17T00:46:06.552Z,100641.13
2023-02-17T00:47:38.535Z,100644.69
2023-02-17T00:49:16.704Z,100631.38
2023-02-17T00:50:48.775Z,100638.34
2023-02-17T00:52:20.485Z,100628.56
2023-02-17T00:53:52.425Z,100639.31
2023-02-17T00:55:24.462Z,100630.38
2023-02-17T00:56:56.403Z,100634.91
2023-02-17T00:58:28.836Z,100633.94
2023-02-17T01:00:00.738Z,100628.56
2023-02-17T01:01:32.869Z,100639.41
2023-02-17T01:03:04.890Z,100630.50
2023-02-17T01:04:36.734Z,100632.22
2023-02-17T01:06:11.283Z,100631.38
2023-02-17T01:07:44.680Z,100625.88
2023-02-17T01:09:17.515Z,100625.97
2023-02-17T01:10:50.137Z,100625.13
2023-02-17T01:12:22.365Z,100618.88
2023-02-17T01:13:55.535Z,100618.00
2023-02-17T01:15:27.259Z,100619.00
2023-02-17T01:16:59.026Z,100621.69
2023-02-17T01:18:33.261Z,100619.84
2023-02-17T01:20:06.232Z,100626.94
2023-02-17T01:21:38.120Z,100622.53
2023-02-17T01:23:13.691Z,100624.38
2023-02-17T01:24:45.400Z,100618.00
2023-02-17T01:26:20.344Z,100617.16
2023-02-17T01:27:52.354Z,100609.31
2023-02-17T01:29:25.410Z,100618.13
2023-02-17T01:30:57.389Z,100618.88
2023-02-17T01:32:29.184Z,100609.00
2023-02-17T01:34:02.748Z,100614.38
2023-02-17T01:35:34.901Z,100614.38
2023-02-17T01:37:06.726Z,100613.41
2023-02-17T01:38:41.148Z,100607.91
2023-02-17T01:40:17.581Z,100611.56
2023-02-17T01:41:49.378Z,100615.03
2023-02-17T01:43:21.723Z,100606.00
2023-02-17T01:45:18.419Z,100607.06
2023-02-17T01:46:55.271Z,100597.94
2023-02-17T01:48:50.988Z,100596.22
2023-02-17T01:50:26.173Z,100601.25
2023-02-17T01:52:16.722Z,100596.94
2023-02-17T01:54:05.922Z,100590.50
2023-02-17T01:55:41.733Z,100589.44
2023-02-17T01:57:17.891Z,100584.91
2023-02-17T01:58:57.495Z,100586.63
2023-02-17T02:00:32.311Z,100569.56
2023-02-17T02:02:05.488Z,100571.28
2023-02-17T02:03:39.387Z,100564.91
2023-02-17T02:05:12.204Z,100565.78
2023-02-17T02:06:45.057Z,100556.78
2023-02-17T02:08:16.986Z,100563.00
2023-02-17T02:09:54.981Z,100550.41
2023-02-17T02:11:26.745Z,100553.75
2023-02-17T02:13:00.190Z,100546.53
2023-02-17T02:14:32.133Z,100533.94
2023-02-17T02:16:18.973Z,100533.22
2023-02-17T02:18:04.022Z,100528.47
2023-02-17T02:20:00.468Z,100521.47
2023-02-17T02:21:57.168Z,100514.41
2023-02-17T02:23:29.075Z,100521.19
2023-02-17T02:25:22.335Z,100517.72
2023-02-17T02:27:26.217Z,100514.91
2023-02-17T02:29:22.095Z,100510.44
2023-02-17T02:31:12.594Z,100507.84
2023-02-17T02:33:08.042Z,100503.22
2023-02-17T02:34:50.597Z,100491.69
2023-02-17T02:36:36.876Z,100491.69
2023-02-17T02:38:17.429Z,100475.56
2023-02-17T02:39:52.730Z,100468.38
2023-02-17T02:41:34.068Z,100477.19
2023-02-17T02:43:06.018Z,100484.28
2023-02-17T02:44:38.119Z,100477.19
2023-02-17T02:46:10.466Z,100483.31
2023-02-17T02:47:46.797Z,100478.03
2023-02-17T02:49:23.333Z,100491.38
2023-02-17T02:51:09.429Z,100485.13
2023-02-17T02:53:11.745Z,100487.94
2023-02-17T02:54:52.754Z,100492.25
2023-02-17T02:57:01.695Z,100486.09
2023-02-17T02:58:50.769Z,100483.63
2023-02-17T03:00:41.515Z,100478.03
2023-02-17T03:02:18.207Z,100476.34
2023-02-17T03:04:09.108Z,100477.50
2023-02-17T03:05:59.828Z,100476.56
2023-02-17T03:07:41.150Z,100472.88
2023-02-17T03:09:19.675Z,100478.25
2023-02-17T03:10:53.480Z,100471.19
2023-02-17T03:12:26.742Z,100466.53
2023-02-17T03:14:07.791Z,100475.69
2023-02-17T03:15:39.767Z,100465.66
2023-02-17T03:17:11.684Z,100462.25
2023-02-17T03:18:43.470Z,100455.91
2023-02-17T03:20:15.682Z,100459.56
2023-02-17T03:21:59.274Z,100449.88
2023-02-17T03:23:31.001Z,100455.03
2023-02-17T03:25:03.512Z,100467.50
2023-02-17T03:26:35.619Z,100456.88
2023-02-17T03:28:07.564Z,100459.44
2023-02-17T03:29:39.796Z,100466.66
2023-02-17T03:31:11.888Z,100452.34
2023-02-17T03:32:44.009Z,100458.47
2023-02-17T03:34:15.752Z,100452.34
2023-02-17T03:35:47.496Z,100450.63
2023-02-17T03:37:19.431Z,100450.63
2023-02-17T03:38:51.751Z,100449.66
2023-02-17T03:40:23.526Z,100445.16
2023-02-17T03:41:55.235Z,100449.66
2023-02-17T03:43:27.145Z,100462.97
2023-02-17T03:44:58.867Z,100452.13
2023-02-17T03:46:30.826Z,100459.22
2023-02-17T03:48:02.545Z,100456.44
2023-02-17T03:49:34.593Z,100454.59
2023-02-17T03:51:14.517Z,100456.66
2023-02-17T03:52:46.560Z,100449.31
2023-02-17T03:54:18.291Z,100456.44
2023-02-17T03:55:50.023Z,100445.56
2023-02-17T03:57:21.715Z,100455.47
2023-02-17T03:58:53.491Z,100444.59
2023-02-17T04:00:25.429Z,100450.81
2023-02-17T04:01:57.157Z,100449.97
2023-02-17T04:03:29.285Z,100449.00
2023-02-17T04:05:01.023Z,100448.03
2023-02-17T04:06:32.786Z,100449.00
2023-02-17T04:08:04.573Z,100449.00
2023-02-17T04:09:36.358Z,100452.78
2023-02-17T04:11:10.228Z,100454.47
2023-02-17T04:12:41.937Z,100450.19
2023-02-17T04:14:13.661Z,100450.53
2023-02-17T04:15:45.477Z,100452.34
2023-02-17T04:17:17.211Z,100457.94
2023-02-17T04:18:49.033Z,100456.25
2023-02-17T04:20:20.796Z,100452.03
2023-02-17T04:21:52.723Z,100454.22
2023-02-17T04:23:24.560Z,100452.69
2023-02-17T04:24:56.262Z,100451.19
2023-02-17T04:26:28.905Z,100442.63
2023-02-17T04:28:00.735Z,100440.16
2023-02-17T04:29:33.775Z,100451.13
2023-02-17T04:31:06.128Z,100435.44
2023-02-17T04:32:38.158Z,100432.94
2023-02-17T04:34:09.903Z,100432.41
2023-02-17T04:35:42.179Z,100436.28
2023-02-17T04:37:13.885Z,100428.44
2023-02-17T04:38:45.639Z,100421.53
2023-02-17T04:40:17.515Z,100432.38
2023-02-17T04:41:49.193Z,100421.97
2023-02-17T04:43:21.040Z,100431.00
2023-02-17T04:44:52.805Z,100434.63
2023-02-17T04:46:24.530Z,100429.47
2023-02-17T04:47:56.384Z,100416.16
2023-02-17T04:49:28.163Z,100422.50
2023-02-17T04:50:59.924Z,100425.28
2023-02-17T04:52:31.626Z,100410.16
2023-02-17T04:54:03.493Z,100411.13
2023-02-17T04:55:35.204Z,100415.63
2023-02-17T04:57:07.007Z,100416.59
2023-02-17T04:58:38.809Z,100413.91
2023-02-17T05:00:11.240Z,100415.72
2023-02-17T05:01:43.030Z,100412.28
2023-02-17T05:03:14.908Z,100414.03
2023-02-17T05:04:46.735Z,100405.09
2023-02-17T05:06:18.428Z,100403.28
2023-02-17T05:07:50.195Z,100403.38
2023-02-17T05:09:21.936Z,100392.53
2023-02-17T05:10:53.749Z,100402.41
2023-02-17T05:12:25.468Z,100405.09
2023-02-17T05:13:57.646Z,100419.41
2023-02-17T05:15:29.411Z,100405.00
2023-02-17T05:17:01.390Z,100415.53
2023-02-17T05:18:33.219Z,100409.28
2023-02-17T05:20:06.233Z,100399.41
2023-02-17T05:21:38.594Z,100407.34
2023-02-17T05:23:10.740Z,100391.22
2023-02-17T05:24:42.482Z,100382.22
2023-02-17T05:26:14.178Z,100392.00
2023-02-17T05:27:45.896Z,100402.63
2023-02-17T05:29:17.660Z,100396.31
2023-02-17T05:30:50.581Z,100399.84
2023-02-17T05:32:23.295Z,100399.72
2023-02-17T05:33:55.385Z,100392.63
2023-02-17T05:35:27.404Z,100394.25
2023-02-17T05:36:59.390Z,100398.78
2023-02-17T05:38:31.277Z,100397.78
2023-02-17T05:40:03.172Z,100391.34
2023-02-17T05:41:35.070Z,100400.47
2023-02-17T05:43:07.488Z,100389.75
2023-02-17T05:44:39.479Z,100394.03
2023-02-17T05:46:11.505Z,100384.16
2023-02-17T05:47:43.283Z,100388.66
2023-02-17T05:49:14.969Z,100377.06
2023-02-17T05:50:46.693Z,100385.13
2023-02-17T05:52:18.561Z,100388.66
2023-02-17T05:53:50.274Z,100389.63
2023-02-17T05:55:22.781Z,100380.72
2023-02-17T05:56:54.532Z,100377.28
2023-02-17T05:58:27.429Z,100383.50
2023-02-17T05:59:59.333Z,100380.72
2023-02-17T06:01:31.067Z,100379.00
2023-02-17T06:03:02.861Z,100379.00
2023-02-17T06:04:34.622Z,100374.38
2023-02-17T06:06:07.626Z,100375.34
2023-02-17T06:07:39.473Z,100373.63
2023-02-17T06:09:11.205Z,100377.94
2023-02-17T06:10:43.007Z,100376.09
2023-02-17T06:12:14.918Z,100375.25
2023-02-17T06:13:46.722Z,100381.34
2023-02-17T06:15:18.481Z,100373.28
2023-02-17T06:16:50.226Z,100374.19
2023-02-17T06:18:21.978Z,100376.84
2023-02-17T06:19:53.713Z,100373.00
2023-02-17T06:21:25.746Z,100372.16
2023-02-17T06:22:57.432Z,100376.56
2023-02-17T06:24:29.241Z,100378.16
2023-02-17T06:26:01.005Z,100374.50
2023-02-17T06:27:32.775Z,100373.66
2023-02-17T06:29:06.599Z,100378.91
2023-02-17T06:30:38.412Z,100380.50
2023-02-17T06:32:10.268Z,100378.69
2023-02-17T06:33:42.478Z,100378.69
2023-02-17T06:35:14.271Z,100380.44
2023-02-17T06:36:46.012Z,100383.09
2023-02-17T06:38:18.515Z,100385.66
2023-02-17T06:39:50.234Z,100377.53
2023-02-17T06:41:21.969Z,100379.22
2023-02-17T06:42:53.777Z,100371.03
2023-02-17T06:44:25.692Z,100378.16
2023-02-17T06:45:57.500Z,100378.88
2023-02-17T06:47:29.270Z,100377.94
2023-02-17T06:49:01.991Z,100373.41
2023-02-17T06:50:33.716Z,100372.44
2023-02-17T06:52:05.466Z,100367.81
2023-02-17T06:53:37.402Z,100374.06
2023-02-17T06:55:09.649Z,100370.28
2023-02-17T06:56:41.632Z,100363.94
2023-02-17T06:58:13.351Z,100371.03
2023-02-17T06:59:45.086Z,100369.09
2023-02-17T07:01:19.893Z,100368.13
2023-02-17T07:02:51.720Z,100376.09
2023-02-17T07:04:23.555Z,100374.25
2023-02-17T07:05:59.516Z,100385.00
2023-02-17T07:07:31.230Z,100375.00
2023-02-17T07:09:03.122Z,100374.03
2023-02-17T07:10:34.879Z,100376.59
2023-02-17T07:12:07.358Z,100380.88
2023-02-17T07:13:41.140Z,100369.28
2023-02-17T07:15:13.203Z,100371.97
2023-02-17T07:16:45.018Z,100369.06
2023-02-17T07:18:16.752Z,100370.78
2023-02-17T07:19:48.481Z,100374.22
2023-02-17T07:21:20.290Z,100375.94
2023-02-17T07:22:52.008Z,100374.00
2023-02-17T07:24:23.798Z,100371.31
2023-02-17T07:25:55.548Z,100375.59
2023-02-17T07:27:27.292Z,100384.53
2023-02-17T07:28:59.029Z,100372.66
2023-02-17T07:30:30.935Z,100379.78
2023-02-17T07:32:02.877Z,100378.69
2023-02-17T07:33:35.009Z,100379.34
2023-02-17T07:35:06.842Z,100373.97
2023-02-17T07:36:38.563Z,100368.34
2023-02-17T07:38:10.529Z,100362.97
2023-02-17T07:39:42.233Z,100362.97
2023-02-17T07:41:16.941Z,100353.81
2023-02-17T07:42:48.680Z,100354.56
2023-02-17T07:44:20.403Z,100348.19
2023-02-17T07:45:55.301Z,100348.09
2023-02-17T07:47:27.462Z,100356.16
2023-02-17T07:48:59.244Z,100344.34
2023-02-17T07:50:30.968Z,100342.38
2023-02-17T07:52:05.138Z,100357.56
2023-02-17T07:53:37.890Z,100345.69
2023-02-17T07:55:09.985Z,100344.72
2023-02-17T07:56:42.133Z,100354.38
2023-02-17T07:58:14.074Z,100356.00
2023-02-17T07:59:47.567Z,100360.28
2023-02-17T08:01:22.488Z,100355.66
2023-02-17T08:02:54.277Z,100360.69
2023-02-17T08:04:26.029Z,100358.75
2023-02-17T08:05:57.788Z,100362.16
2023-02-17T08:07:29.962Z,100357.41
2023-02-17T08:09:20.617Z,100364.53
2023-02-17T08:11:11.174Z,100367.94
2023-02-17T08:13:09.517Z,100366.13
2023-02-17T08:14:44.141Z,100359.63
2023-02-17T08:16:16.225Z,100367.59
2023-02-17T08:17:50.964Z,100374.69
2023-02-17T08:19:23.850Z,100362.94
2023-02-17T08:20:55.609Z,100371.78
2023-02-17T08:22:27.398Z,100369.94
2023-02-17T08:23:59.356Z,100378.00
2023-02-17T08:25:33.774Z,100368.97
2023-02-17T08:27:06.440Z,100365.53
2023-02-17T08:28:38.272Z,100368.09
2023-02-17T08:30:10.538Z,100368.97
2023-02-17T08:31:43.414Z,100363.47
2023-02-17T08:33:18.097Z,100370.69
2023-02-17T08:34:50.036Z,100370.56
2023-02-17T08:36:24.803Z,100369.59
2023-02-17T08:37:56.515Z,100371.41
2023-02-17T08:39:28.763Z,100361.41
2023-02-17T08:41:00.828Z,100358.69
2023-02-17T08:42:32.944Z,100356.66
2023-02-17T08:44:09.659Z,100363.03
2023-02-17T08:45:41.492Z,100346.75
2023-02-17T08:47:13.227Z,100357.41
2023-02-17T08:48:45.805Z,100353.66
2023-02-17T08:50:19.975Z,100349.13
2023-02-17T08:51:52.275Z,100349.97
2023-02-17T08:53:27.047Z,100344.44
2023-02-17T08:54:58.745Z,100343.50
2023-02-17T08:56:31.154Z,100350.59
2023-02-17T08:58:02.927Z,100340.56
2023-02-17T08:59:34.790Z,100347.66
2023-02-17T09:01:06.518Z,100343.03
2023-02-17T09:02:38.318Z,100334.81
2023-02-17T09:04:11.931Z,100330.19
2023-02-17T09:05:44.115Z,100321.97
2023-02-17T09:07:16.823Z,100325.41
2023-02-17T09:08:49.370Z,100319.78
2023-02-17T09:10:21.140Z,100320.50
2023-02-17T09:11:55.407Z,100322.97
2023-02-17T09:13:27.553Z,100311.97
2023-02-17T09:14:59.279Z,100309.03
2023-02-17T09:16:31.110Z,100308.78
2023-02-17T09:18:03.100Z,100302.91
2023-02-17T09:19:38.626Z,100304.63
2023-02-17T09:21:12.786Z,100308.66
2023-02-17T09:22:44.518Z,100321.75
2023-02-17T09:24:17.547Z,100315.03
2023-02-17T09:25:49.350Z,100315.78
2023-02-17T09:27:21.093Z,100320.78
2023-02-17T09:28:52.922Z,100316.91
2023-02-17T09:30:24.800Z,100308.53
2023-02-17T09:31:56.827Z,100320.81
2023-02-17T09:33:28.688Z,100311.59
2023-02-17T09:35:01.634Z,100309.41
2023-02-17T09:36:38.754Z,100303.75
2023-02-17T09:38:10.509Z,100303.38
2023-02-17T09:39:42.339Z,100304.84
2023-02-17T09:41:24.733Z,100306.31
2023-02-17T09:42:56.905Z,100308.75
2023-02-17T09:44:40.879Z,100294.78
2023-02-17T09:46:30.277Z,100299.81
2023-02-17T09:48:08.808Z,100291.38
2023-02-17T09:49:45.661Z,100287.44
2023-02-17T09:51:39.671Z,100269.25
2023-02-17T09:53:52.081Z,100283.13
2023-02-17T09:55:28.258Z,100275.13
2023-02-17T09:57:03.594Z,100271.28
2023-02-17T09:58:58.355Z,100280.22
2023-02-17T10:00:34.578Z,100261.72
2023-02-17T10:02:12.008Z,100266.69
2023-02-17T10:04:22.791Z,100257.75
2023-02-17T10:06:03.761Z,100261.91
2023-02-17T10:07:41.636Z,100258.78
2023-02-17T10:09:26.472Z,100262.22
2023-02-17T10:11:13.684Z,100264.19
2023-02-17T10:12:50.421Z,100271.06
2023-02-17T10:14:27.281Z,100277.31
2023-02-17T10:16:05.529Z,100277.16
2023-02-17T10:18:03.172Z,100268.97
2023-02-17T10:19:45.043Z,100257.91
2023-02-17T10:21:26.009Z,100247.09
2023-02-17T10:23:04.983Z,100248.69
2023-02-17T10:24:36.903Z,100238.59
2023-02-17T10:26:46.209Z,100239.19
2023-02-17T10:28:25.011Z,100226.03
2023-02-17T10:30:10.168Z,100221.09
2023-02-17T10:32:05.766Z,100230.63
2023-02-17T10:33:46.525Z,100209.81
2023-02-17T10:35:24.568Z,100210.25
2023-02-17T10:37:00.519Z,100205.44
2023-02-17T10:38:53.098Z,100195.38
2023-02-17T10:40:27.970Z,100206.38
2023-02-17T10:42:00.605Z,100201.41
2023-02-17T10:43:33.718Z,100193.03
2023-02-17T10:45:13.372Z,100195.47
2023-02-17T10:46:48.615Z,100179.84
2023-02-17T10:48:24.823Z,100181.41
2023-02-17T10:49:58.510Z,100191.94
2023-02-17T10:51:31.718Z,100190.81
2023-02-17T10:53:14.383Z,100176.44
2023-02-17T10:55:01.944Z,100186.00
2023-02-17T10:56:48.171Z,100176.03
2023-02-17T10:58:27.484Z,100176.59
2023-02-17T10:59:59.223Z,100171.19
2023-02-17T11:01:30.996Z,100158.69
2023-02-17T11:03:02.754Z,100145.47
2023-02-17T11:04:45.084Z,100159.25
2023-02-17T11:06:23.683Z,100154.97
2023-02-17T11:08:02.780Z,100153.38
2023-02-17T11:09:34.727Z,100150.97
2023-02-17T11:11:14.449Z,100153.94
2023-02-17T11:12:47.128Z,100159.78
2023-02-17T11:14:27.573Z,100143.25
2023-02-17T11:16:00.263Z,100136.56
2023-02-17T11:17:38.969Z,100127.03
2023-02-17T11:19:27.598Z,100134.06
2023-02-17T11:21:08.891Z,100124.25
2023-02-17T11:22:59.461Z,100130.94
2023-02-17T11:24:34.185Z,100115.00
2023-02-17T11:26:11.479Z,100101.19
2023-02-17T11:27:51.079Z,100095.34
2023-02-17T11:29:24.015Z,100098.19
2023-02-17T11:31:00.263Z,100095.88
2023-02-17T11:32:32.963Z,100099.00
2023-02-17T11:34:15.932Z,100089.06
2023-02-17T11:35:54.338Z,100100.13
2023-02-17T11:37:28.307Z,100085.78
2023-02-17T11:39:01.023Z,100099.28
2023-02-17T11:40:33.300Z,100093.03
2023-02-17T11:42:29.255Z,100088.03
2023-02-17T11:44:01.112Z,100089.47
2023-02-17T11:45:49.703Z,100087.06
2023-02-17T11:47:30.016Z,100074.25
2023-02-17T11:49:29.746Z,100069.59
2023-02-17T11:51:15.708Z,100076.56
2023-02-17T11:53:03.477Z,100071.75
2023-02-17T11:55:10.490Z,100064.06
2023-02-17T11:56:52.977Z,100062.25
2023-02-17T11:58:27.641Z,100069.81
2023-02-17T12:00:17.826Z,100075.94
2023-02-17T12:02:09.883Z,100060.03
2023-02-17T12:03:53.351Z,100052.50
2023-02-17T12:05:43.690Z,100061.34
2023-02-17T12:07:31.537Z,100057.84
2023-02-17T12:09:47.687Z,100055.84
2023-02-17T12:11:30.847Z,100044.47
2023-02-17T12:13:21.545Z,100038.06
2023-02-17T12:15:03.060Z,100038.94
2023-02-17T12:16:48.254Z,100038.78
2023-02-17T12:18:22.796Z,100042.91
2023-02-17T12:20:16.824Z,100039.22
2023-02-17T12:22:04.727Z,100035.09
2023-02-17T12:24:01.591Z,100013.75
2023-02-17T12:25:41.709Z,100019.44
2023-02-17T12:27:27.246Z,100023.59
2023-02-17T12:29:05.785Z,100014.31
2023-02-17T12:30:55.911Z,100018.47
2023-02-17T12:32:27.703Z,100010.22
2023-02-17T12:34:32.433Z,100010.66
2023-02-17T12:36:13.428Z,99998.38
2023-02-17T12:37:57.433Z,99998.81
2023-02-17T12:39:38.475Z,100000.22
2023-02-17T12:41:30.631Z,100002.50
2023-02-17T12:43:17.599Z,99994.66
2023-02-17T12:45:06.116Z,100001.34
2023-02-17T12:46:46.413Z,99999.22
2023-02-17T12:48:31.397Z,100000.44
2023-02-17T12:50:19.492Z,99994.47
2023-02-17T12:51:57.841Z,99984.78
2023-02-17T12:54:00.717Z,99988.50
2023-02-17T12:55:48.910Z,99985.38
2023-02-17T12:57:34.555Z,99984.06
2023-02-17T12:59:14.952Z,99981.91
2023-02-17T13:00:50.648Z,99975.19
2023-02-17T13:02:24.744Z,99971.19
2023-02-17T13:03:59.950Z,99969.91
2023-02-17T13:05:51.882Z,99957.34
2023-02-17T13:07:41.921Z,99945.63
2023-02-17T13:09:25.089Z,99954.91
2023-02-17T13:11:06.123Z,99961.72
2023-02-17T13:12:41.177Z,99962.41
2023-02-17T13:14:40.642Z,99961.28
2023-02-17T13:16:14.090Z,99945.28
2023-02-17T13:17:55.663Z,99941.56
2023-02-17T13:19:29.907Z,99935.53
2023-02-17T13:21:20.569Z,99941.25
2023-02-17T13:23:04.629Z,99938.09
2023-02-17T13:24:52.725Z,99926.97
2023-02-17T13:26:31.197Z,99930.06
2023-02-17T13:28:15.771Z,99920.66
2023-02-17T13:29:58.225Z,99918.31
2023-02-17T13:31:30.209Z,99924.28
2023-02-17T13:33:20.258Z,99925.13
2023-02-17T13:35:05.977Z,99915.69
2023-02-17T13:36:37.939Z,99931.66
2023-02-17T13:38:10.453Z,99908.25
2023-02-17T13:39:42.754Z,99912.69
2023-02-17T13:41:14.574Z,99915.41
2023-02-17T13:42:48.449Z,99909.09
2023-02-17T13:44:38.817Z,99918.41
2023-02-17T13:46:26.695Z,99909.88
2023-02-17T13:48:10.822Z,99901.75
2023-02-17T13:49:42.750Z,99905.78
2023-02-17T13:51:29.149Z,99916.53
2023-02-17T13:53:02.872Z,99905.84
2023-02-17T13:54:34.675Z,99889.75
2023-02-17T13:56:10.198Z,99899.19
2023-02-17T13:57:43.520Z,99888.38
2023-02-17T13:59:20.273Z,99897.63
2023-02-17T14:00:53.411Z,99896.78
2023-02-17T14:02:35.861Z,99897.94
2023-02-17T14:04:20.081Z,99909.06
2023-02-17T14:06:03.125Z,99889.16
2023-02-17T14:07:36.394Z,99909.66
2023-02-17T14:09:25.219Z,99887.59
2023-02-17T14:10:57.686Z,99889.28
2023-02-17T14:12:29.969Z,99876.91
2023-02-17T14:14:03.054Z,99874.19
2023-02-17T14:15:34.839Z,99865.09
2023-02-17T14:17:27.766Z,99868.94
2023-02-17T14:19:08.550Z,99871.97
2023-02-17T14:20:41.500Z,99869.78
2023-02-17T14:22:30.177Z,99873.50
2023-02-17T14:24:02.636Z,99857.09
2023-02-17T14:25:37.603Z,99861.00
2023-02-17T14:27:14.433Z,99858.28
2023-02-17T14:28:56.216Z,99866.72
2023-02-17T14:30:35.603Z,99852.00
2023-02-17T14:32:08.109Z,99846.75
2023-02-17T14:33:39.869Z,99845.91
2023-02-17T14:35:14.616Z,99863.84
2023-02-17T14:36:47.308Z,99849.28
2023-02-17T14:38:22.096Z,99844.19
2023-02-17T14:39:53.797Z,99845.19
2023-02-17T14:41:26.472Z,99846.03
2023-02-17T14:42:58.359Z,99844.19
2023-02-17T14:44:31.282Z,99848.91
2023-02-17T14:46:03.462Z,99850.78
2023-02-17T14:47:35.224Z,99839.25
2023-02-17T14:49:06.926Z,99826.56
2023-02-17T14:50:44.966Z,99833.84
2023-02-17T14:52:22.254Z,99810.31
2023-02-17T14:53:54.255Z,99814.91
2023-02-17T14:55:36.633Z,99828.72
2023-02-17T14:57:14.410Z,99813.03
2023-02-17T14:58:46.631Z,99825.72
2023-02-17T15:00:18.532Z,99817.44
2023-02-17T15:01:50.315Z,99836.22
2023-02-17T15:03:22.622Z,99809.16
2023-02-17T15:04:54.367Z,99829.97
2023-02-17T15:06:32.553Z,99831.66
2023-02-17T15:08:04.661Z,99825.25
2023-02-17T15:09:36.399Z,99828.53
2023-02-17T15:11:17.822Z,99844.75
2023-02-17T15:12:49.458Z,99851.69
2023-02-17T15:14:21.365Z,99847.22
2023-02-17T15:15:53.515Z,99858.75
2023-02-17T15:17:25.222Z,99850.78
2023-02-17T15:18:57.198Z,99864.00
2023-02-17T15:20:28.899Z,99867.72
2023-02-17T15:22:03.885Z,99877.53
2023-02-17T15:23:35.745Z,99873.81
2023-02-17T15:25:16.620Z,99892.09
2023-02-17T15:26:48.455Z,99883.81
2023-02-17T15:28:21.004Z,99888.38
2023-02-17T15:29:52.797Z,99889.69
2023-02-17T15:31:25.637Z,99887.13
2023-02-17T15:32:57.724Z,99893.00
2023-02-17T15:34:35.046Z,99889.75
2023-02-17T15:36:07.208Z,99897.16
2023-02-17T15:37:39.110Z,99900.03
2023-02-17T15:39:13.418Z,99894.06
2023-02-17T15:40:45.414Z,99893.38
2023-02-17T15:42:17.947Z,99899.25
2023-02-17T15:43:50.105Z,99901.41
2023-02-17T15:45:22.899Z,99889.03
2023-02-17T15:46:55.751Z,99890.19
2023-02-17T15:48:30.252Z,99893.34
2023-02-17T15:50:02.024Z,99892.78
2023-02-17T15:51:33.810Z,99901.34
2023-02-17T15:53:05.741Z,99904.22
2023-02-17T15:54:37.433Z,99891.84
2023-02-17T15:56:12.928Z,99892.41
2023-02-17T15:57:51.429Z,99905.38
2023-02-17T15:59:26.765Z,99894.00
2023-02-17T16:01:01.653Z,99905.97
2023-02-17T16:02:33.423Z,99904.41
2023-02-17T16:04:06.740Z,99904.00
2023-02-17T16:05:38.495Z,99896.88
2023-02-17T16:07:10.454Z,99904.31
2023-02-17T16:08:42.165Z,99893.63
2023-02-17T16:10:17.293Z,99897.47
2023-02-17T16:11:54.450Z,99891.50
2023-02-17T16:13:27.645Z,99891.66
2023-02-17T16:14:59.390Z,99904.63
2023-02-17T16:16:33.634Z,99896.53
2023-02-17T16:18:05.474Z,99890.69
2023-02-17T16:19:37.148Z,99890.84
2023-02-17T16:21:11.609Z,99893.13
2023-02-17T16:22:44.997Z,99897.53
2023-02-17T16:24:16.986Z,99879.19
2023-02-17T16:25:50.401Z,99888.31
2023-02-17T16:27:24.107Z,99875.09
2023-02-17T16:28:56.181Z,99896.16
2023-02-17T16:30:34.170Z,99891.88
2023-02-17T16:32:06.221Z,99886.66
2023-02-17T16:33:38.105Z,99889.47
2023-02-17T16:35:14.319Z,99870.72
2023-02-17T16:36:46.046Z,99867.19
2023-02-17T16:38:23.038Z,99876.13
2023-02-17T16:39:55.187Z,99879.97
2023-02-17T16:41:27.256Z,99877.13
2023-02-17T16:42:59.971Z,99888.06
2023-02-17T16:44:31.898Z,99881.66
2023-02-17T16:46:05.626Z,99884.22
2023-02-17T16:47:37.702Z,99870.72
2023-02-17T16:49:28.326Z,99870.84
2023-02-17T16:51:00.096Z,99860.03
2023-02-17T16:52:32.088Z,99868.16
2023-02-17T16:54:03.940Z,99860.22
2023-02-17T16:55:36.789Z,99866.75
2023-02-17T16:57:18.494Z,99873.56
2023-02-17T16:58:50.355Z,99857.25
2023-02-17T17:00:25.534Z,99857.53
2023-02-17T17:01:57.708Z,99861.22
2023-02-17T17:03:29.466Z,99854.09
2023-02-17T17:05:01.148Z,99841.59
2023-02-17T17:06:33.600Z,99842.47
2023-02-17T17:08:07.259Z,99856.97
2023-02-17T17:09:38.966Z,99845.31
2023-02-17T17:11:23.273Z,99861.53
2023-02-17T17:12:55.548Z,99855.84
2023-02-17T17:14:27.394Z,99861.94
2023-02-17T17:15:59.412Z,99844.75
2023-02-17T17:17:37.326Z,99863.34
2023-02-17T17:19:14.318Z,99860.34
2023-02-17T17:20:46.871Z,99871.88
2023-02-17T17:22:18.584Z,99877.97
2023-02-17T17:23:53.220Z,99868.88
2023-02-17T17:25:25.753Z,99859.47
2023-02-17T17:26:57.545Z,99882.66
2023-02-17T17:28:29.557Z,99878.81
2023-02-17T17:30:01.486Z,99886.63
2023-02-17T17:31:33.776Z,99877.38
2023-02-17T17:33:05.714Z,99890.72
2023-02-17T17:34:38.399Z,99899.09
2023-02-17T17:36:21.887Z,99890.69
2023-02-17T17:37:54.139Z,99914.91
2023-02-17T17:39:25.878Z,99902.78
2023-02-17T17:40:57.586Z,99912.59
2023-02-17T17:42:29.321Z,99896.91
2023-02-17T17:44:01.091Z,99905.59
2023-02-17T17:45:32.868Z,99912.56
2023-02-17T17:47:04.604Z,99917.97
2023-02-17T17:48:36.291Z,99915.97
2023-02-17T17:50:13.482Z,99924.94
2023-02-17T17:51:45.603Z,99916.66
2023-02-17T17:53:17.431Z,99928.19
2023-02-17T17:54:49.181Z,99936.13
2023-02-17T17:56:24.720Z,99926.88
2023-02-17T17:57:56.404Z,99940.41
2023-02-17T17:59:28.114Z,99939.25
2023-02-17T18:01:01.078Z,99965.28
2023-02-17T18:02:33.025Z,99973.41
2023-02-17T18:04:05.232Z,99979.69
2023-02-17T18:05:37.190Z,99984.09
2023-02-17T18:07:09.209Z,99979.97
2023-02-17T18:08:42.367Z,99984.81
2023-02-17T18:10:14.798Z,99975.59
2023-02-17T18:11:46.619Z,99995.25
2023-02-17T18:13:18.403Z,99996.28
2023-02-17T18:14:53.363Z,99988.59
2023-02-17T18:16:27.078Z,99990.88
2023-02-17T18:17:58.777Z,99999.28
2023-02-17T18:19:32.155Z,99990.44
2023-02-17T18:21:04.200Z,100003.50
2023-02-17T18:22:36.053Z,100010.84
2023-02-17T18:24:07.915Z,100011.09